Time;durP1;ratioP1;P1;durP2;ratioP2;P2;SDS_P1;SDS_P2;PMS_P1;PMS_P2;Temp;Humidity;BMP_temperature;BMP_pressure;BME280_temperature;BME280_humidity;BME280_pressure;Samples;Min_cycle;Max_cycle;Signal;HPM_P1;HPM_P2
2021/12/26 00:00:34;;;;;;;8.82;4.93;;;-3.80;99.90;;;;;;4783542;28;10001792;-72
2021/12/26 00:03:00;;;;;;;7.53;4.57;;;-4.00;99.90;;;;;;4954723;28;20260;-72
2021/12/26 00:05:27;;;;;;;8.60;4.40;;;-4.20;99.90;;;;;;4962782;28;20512;-72
2021/12/26 00:07:53;;;;;;;7.82;4.65;;;-4.40;99.90;;;;;;4975848;28;20662;-72
2021/12/26 00:10:24;;;;;;;11.15;5.35;;;-4.50;99.90;;;;;;4963735;28;20038;-72
2021/12/26 00:12:50;;;;;;;8.07;4.50;;;-4.70;99.90;;;;;;4960779;28;20075;-72
2021/12/26 00:15:16;;;;;;;9.02;5.00;;;-4.70;99.90;;;;;;4962681;28;20578;-72
2021/12/26 00:17:42;;;;;;;9.15;4.47;;;-4.80;99.90;;;;;;4961188;28;20045;-72
2021/12/26 00:20:10;;;;;;;6.40;4.07;;;-4.80;99.90;;;;;;4961798;28;20058;-72
2021/12/26 00:22:37;;;;;;;7.47;4.35;;;-4.90;99.90;;;;;;4951152;28;20540;-72
2021/12/26 00:25:04;;;;;;;8.13;4.60;;;-4.90;99.90;;;;;;4957708;28;20042;-72
2021/12/26 00:27:29;;;;;;;6.63;4.10;;;-4.90;99.90;;;;;;4960271;28;20055;-72
2021/12/26 00:29:55;;;;;;;7.30;4.40;;;-4.90;99.90;;;;;;4959830;28;20058;-72
2021/12/26 00:32:21;;;;;;;7.55;4.03;;;-5.00;99.90;;;;;;4964067;28;20047;-72
2021/12/26 00:34:50;;;;;;;9.13;4.63;;;-4.90;99.90;;;;;;4962599;28;20532;-71
2021/12/26 00:37:16;;;;;;;6.88;4.10;;;-5.00;99.90;;;;;;4967326;28;20045;-72
2021/12/26 00:39:42;;;;;;;9.35;4.60;;;-5.00;99.90;;;;;;4960783;28;20760;-72
2021/12/26 00:42:07;;;;;;;9.68;4.60;;;-5.10;99.90;;;;;;4967817;28;20093;-72
2021/12/26 00:44:38;;;;;;;7.80;4.40;;;-5.10;99.90;;;;;;4965949;28;20027;-72
2021/12/26 00:47:04;;;;;;;6.60;4.10;;;-5.10;99.90;;;;;;4961767;28;20551;-72
2021/12/26 00:49:30;;;;;;;8.02;4.30;;;-5.20;99.90;;;;;;4970021;28;20030;-72
2021/12/26 00:51:56;;;;;;;8.88;4.38;;;-5.20;99.90;;;;;;4963205;28;20038;-73
2021/12/26 00:54:22;;;;;;;7.28;4.18;;;-5.20;99.90;;;;;;4964717;28;20089;-73
2021/12/26 00:56:47;;;;;;;9.10;4.57;;;-5.10;99.90;;;;;;4964254;28;20533;-72
2021/12/26 00:59:13;;;;;;;8.90;4.80;;;-5.10;99.90;;;;;;4967410;28;20344;-72
2021/12/26 01:01:39;;;;;;;8.65;4.82;;;-5.00;99.90;;;;;;4967255;28;20165;-71
2021/12/26 01:04:05;;;;;;;7.68;4.35;;;-4.90;99.90;;;;;;4949583;28;20074;-71
2021/12/26 01:06:31;;;;;;;7.80;4.88;;;-4.80;99.90;;;;;;4955047;28;20141;-70
2021/12/26 01:08:56;;;;;;;8.27;4.40;;;-4.80;99.90;;;;;;4958566;28;20062;-71
2021/12/26 01:11:36;;;;;;;9.13;5.00;;;-4.80;99.90;;;;;;4967118;28;20092;-71
2021/12/26 01:14:05;;;;;;;11.05;5.00;;;-4.90;99.90;;;;;;4964948;28;20063;-71
2021/12/26 01:16:31;;;;;;;9.20;5.18;;;-4.90;99.90;;;;;;4956922;28;20045;-71
2021/12/26 01:19:07;;;;;;;8.05;5.15;;;-5.00;99.90;;;;;;4964356;28;20458;-71
2021/12/26 01:21:34;;;;;;;10.82;5.10;;;-5.10;99.90;;;;;;4967446;28;20129;-71
2021/12/26 01:24:03;;;;;;;10.13;5.30;;;-5.10;99.90;;;;;;4966007;28;20042;-71
2021/12/26 01:26:30;;;;;;;9.07;5.18;;;-5.20;99.90;;;;;;4966967;28;20038;-72
2021/12/26 01:28:56;;;;;;;7.57;4.57;;;-5.10;99.90;;;;;;4955259;28;20042;-71
2021/12/26 01:31:23;;;;;;;10.75;5.47;;;-5.10;99.90;;;;;;4968558;28;20035;-71
2021/12/26 01:33:51;;;;;;;8.75;5.43;;;-5.10;99.90;;;;;;4956772;28;20034;-71
2021/12/26 01:36:17;;;;;;;8.60;5.13;;;-5.10;99.90;;;;;;4970225;28;20026;-71
2021/12/26 01:38:43;;;;;;;8.52;5.25;;;-5.20;99.90;;;;;;4962536;28;20569;-71
2021/12/26 01:41:10;;;;;;;8.95;5.07;;;-5.10;99.90;;;;;;4965162;28;20085;-72
2021/12/26 01:43:39;;;;;;;8.70;5.18;;;-5.10;99.90;;;;;;4966697;28;20054;-71
2021/12/26 01:46:05;;;;;;;7.78;4.60;;;-5.10;99.90;;;;;;4966744;28;20034;-71
2021/12/26 01:48:31;;;;;;;8.70;4.93;;;-5.00;99.90;;;;;;4953264;28;20043;-71
2021/12/26 01:50:57;;;;;;;7.50;4.43;;;-5.10;99.90;;;;;;4954150;28;20042;-71
2021/12/26 01:53:26;;;;;;;8.65;5.13;;;-5.20;99.90;;;;;;4957578;28;20031;-71
2021/12/26 01:55:54;;;;;;;10.90;6.10;;;-5.10;99.90;;;;;;4956065;28;20039;-71
2021/12/26 01:58:21;;;;;;;10.63;6.30;;;-5.00;99.90;;;;;;4951317;28;20039;-71
2021/12/26 02:00:54;;;;;;;10.02;5.95;;;-4.80;99.90;;;;;;4965751;28;20030;-71
2021/12/26 02:03:20;;;;;;;9.18;5.30;;;-4.70;99.90;;;;;;4964456;28;20035;-71
2021/12/26 02:05:46;;;;;;;10.93;6.25;;;-4.50;99.90;;;;;;4958036;28;20110;-71
2021/12/26 02:08:12;;;;;;;11.15;6.10;;;-4.40;99.90;;;;;;4953911;28;20039;-71
2021/12/26 02:10:37;;;;;;;10.55;5.90;;;-4.30;99.90;;;;;;4970978;28;20031;-72
2021/12/26 02:13:03;;;;;;;11.05;6.22;;;-4.30;99.90;;;;;;4967029;28;20364;-72
2021/12/26 02:15:29;;;;;;;10.07;5.70;;;-4.40;99.90;;;;;;4965607;28;20522;-71
2021/12/26 02:17:56;;;;;;;9.35;5.55;;;-4.50;99.90;;;;;;4960980;28;20035;-71
2021/12/26 02:20:27;;;;;;;8.98;5.60;;;-4.70;99.90;;;;;;4959475;28;20102;-72
2021/12/26 02:22:59;;;;;;;9.85;5.55;;;-4.80;99.90;;;;;;4956678;28;20122;-71
2021/12/26 02:28:08;;;;;;;12.20;7.07;;;-4.80;99.90;;;;;;4950537;29;20400;-71
2021/12/26 02:30:34;;;;;;;12.75;6.57;;;-4.70;99.90;;;;;;4966760;28;20038;-72
2021/12/26 02:33:03;;;;;;;13.73;6.93;;;-4.70;99.90;;;;;;4956908;28;20122;-71
2021/12/26 02:35:29;;;;;;;14.60;6.75;;;-4.70;99.90;;;;;;4960726;28;20773;-71
2021/12/26 02:37:55;;;;;;;15.27;7.65;;;-4.80;99.90;;;;;;4965106;28;20040;-71
2021/12/26 02:40:21;;;;;;;13.15;7.13;;;-4.70;99.90;;;;;;4963937;28;20399;-72
2021/12/26 02:42:47;;;;;;;14.80;6.82;;;-4.60;99.90;;;;;;4965917;28;20070;-71
2021/12/26 02:45:13;;;;;;;12.55;7.30;;;-4.60;99.90;;;;;;4966086;28;20034;-71
2021/12/26 02:47:41;;;;;;;11.48;6.18;;;-4.70;99.90;;;;;;4962490;28;20033;-71
2021/12/26 02:50:25;;;;;;;13.20;6.63;;;-4.80;99.90;;;;;;4965606;28;20661;-71
2021/12/26 02:52:52;;;;;;;13.82;7.25;;;-4.90;99.90;;;;;;4960840;28;20045;-71
2021/12/26 02:55:20;;;;;;;16.52;7.93;;;;;;;;;;4964711;28;20043;-72
2021/12/26 02:57:59;;;;;;;16.42;8.32;;;-4.90;99.90;;;;;;4961380;28;20039;-71
2021/12/26 03:00:28;;;;;;;16.67;8.10;;;-4.80;99.90;;;;;;4963413;28;20793;-71
2021/12/26 03:02:59;;;;;;;13.68;7.63;;;-4.60;99.90;;;;;;4962362;28;20445;-71
2021/12/26 03:05:28;;;;;;;15.60;8.07;;;-4.50;99.90;;;;;;4962549;28;20551;-71
2021/12/26 03:07:54;;;;;;;18.48;8.43;;;-4.40;99.90;;;;;;4953834;28;20149;-71
2021/12/26 03:10:24;;;;;;;15.63;8.30;;;-4.40;99.90;;;;;;4963156;28;20114;-72
2021/12/26 03:12:55;;;;;;;15.68;8.40;;;-4.30;99.90;;;;;;4963045;28;20117;-71
2021/12/26 03:15:22;;;;;;;16.98;8.48;;;-4.20;99.90;;;;;;4960729;28;20114;-71
2021/12/26 03:17:47;;;;;;;14.88;7.38;;;-4.20;99.90;;;;;;4962406;28;20045;-71
2021/12/26 03:20:17;;;;;;;17.73;8.52;;;-4.10;99.90;;;;;;4961750;28;20039;-72
2021/12/26 03:22:44;;;;;;;15.95;7.85;;;-4.10;99.90;;;;;;4961095;28;20038;-71
2021/12/26 03:25:23;;;;;;;16.92;8.27;;;-4.10;99.90;;;;;;4958366;28;20409;-71
2021/12/26 03:27:50;;;;;;;14.52;8.07;;;-4.10;99.90;;;;;;4962935;28;20043;-72
2021/12/26 03:30:22;;;;;;;16.45;8.00;;;-4.10;99.90;;;;;;4963502;28;20035;-72
2021/12/26 03:32:48;;;;;;;16.70;8.52;;;-4.10;99.90;;;;;;4968496;28;20061;-72
2021/12/26 03:35:14;;;;;;;16.95;7.95;;;-4.10;99.90;;;;;;4969052;28;20514;-71
2021/12/26 03:37:41;;;;;;;15.73;7.57;;;-4.00;99.90;;;;;;4967918;28;20221;-72
2021/12/26 03:40:08;;;;;;;14.43;7.72;;;-4.10;99.90;;;;;;4964398;28;20085;-72
2021/12/26 03:42:34;;;;;;;15.10;7.63;;;-4.00;99.90;;;;;;4956898;28;20034;-71
2021/12/26 03:45:00;;;;;;;16.55;8.23;;;-4.00;99.90;;;;;;4967557;28;20026;-72
2021/12/26 03:47:26;;;;;;;15.18;8.00;;;-4.00;99.90;;;;;;4966185;28;20083;-71
2021/12/26 03:50:02;;;;;;;14.45;7.38;;;-4.00;99.90;;;;;;4960052;28;20080;-72
2021/12/26 03:52:28;;;;;;;15.43;7.68;;;-4.00;99.90;;;;;;4967412;28;20034;-71
2021/12/26 03:54:54;;;;;;;15.60;8.15;;;-4.10;99.90;;;;;;4967608;28;20031;-72
2021/12/26 03:57:20;;;;;;;11.20;7.22;;;-4.20;99.90;;;;;;4966635;28;20031;-72
2021/12/26 03:59:46;;;;;;;14.77;7.60;;;-4.20;99.90;;;;;;4968275;28;20483;-72
2021/12/26 04:02:14;;;;;;;18.98;8.57;;;-4.20;99.90;;;;;;4969431;28;20049;-72
2021/12/26 04:04:41;;;;;;;13.30;7.78;;;-4.30;99.90;;;;;;4965351;28;20023;-72
2021/12/26 04:07:08;;;;;;;14.52;8.43;;;-4.30;99.90;;;;;;4968522;28;20058;-73
2021/12/26 04:09:35;;;;;;;14.27;7.90;;;-4.20;99.90;;;;;;4961176;28;20073;-72
2021/12/26 04:12:01;;;;;;;13.25;7.97;;;-4.20;99.90;;;;;;4968917;28;20026;-73
2021/12/26 04:14:26;;;;;;;15.45;8.30;;;-4.20;99.90;;;;;;4963167;28;20467;-72
2021/12/26 04:16:52;;;;;;;18.38;8.25;;;-4.10;99.90;;;;;;4965885;28;20122;-73
2021/12/26 04:19:18;;;;;;;16.55;8.45;;;-4.10;99.90;;;;;;4963347;28;20030;-72
2021/12/26 04:21:43;;;;;;;16.90;8.05;;;-4.00;99.90;;;;;;4956499;28;20061;-72
2021/12/26 04:24:09;;;;;;;15.80;8.57;;;-4.00;99.90;;;;;;4959272;28;20035;-72
2021/12/26 04:26:35;;;;;;;13.48;7.78;;;-4.00;99.90;;;;;;4958926;28;20026;-71
2021/12/26 04:29:00;;;;;;;16.20;8.82;;;-3.90;99.90;;;;;;4963811;28;20077;-72
2021/12/26 04:31:26;;;;;;;15.35;7.80;;;-4.00;99.90;;;;;;4970358;28;20421;-72
2021/12/26 04:33:52;;;;;;;14.65;7.85;;;-4.00;99.90;;;;;;4966599;28;20429;-72
2021/12/26 04:36:18;;;;;;;16.63;8.77;;;-4.00;99.90;;;;;;4966339;28;20739;-72
2021/12/26 04:38:44;;;;;;;15.32;8.80;;;-4.00;99.90;;;;;;4965562;28;20038;-72
2021/12/26 04:41:11;;;;;;;15.77;8.05;;;-3.90;99.90;;;;;;4954568;28;20027;-72
2021/12/26 04:43:38;;;;;;;17.38;8.13;;;-3.90;99.90;;;;;;4963485;28;20102;-72
2021/12/26 04:46:06;;;;;;;15.63;8.75;;;-3.80;99.90;;;;;;4955577;28;20035;-72
2021/12/26 04:48:33;;;;;;;15.68;8.27;;;-3.90;99.90;;;;;;4953460;28;20106;-71
2021/12/26 04:50:59;;;;;;;16.08;8.13;;;-3.80;99.90;;;;;;4956290;28;20030;-72
2021/12/26 04:53:25;;;;;;;15.65;8.65;;;-3.90;99.90;;;;;;4958824;28;20063;-72
2021/12/26 04:55:51;;;;;;;20.75;9.50;;;-3.90;99.90;;;;;;4964775;28;20073;-72
2021/12/26 04:58:17;;;;;;;18.10;8.98;;;-3.80;99.90;;;;;;4967850;28;20417;-72
2021/12/26 05:00:43;;;;;;;16.70;8.85;;;-3.80;99.90;;;;;;4963204;28;20034;-72
2021/12/26 05:03:08;;;;;;;18.25;9.55;;;-3.70;99.90;;;;;;4964009;28;20042;-71
2021/12/26 05:05:36;;;;;;;18.77;9.40;;;-3.80;99.90;;;;;;4963949;28;20022;-71
2021/12/26 05:08:03;;;;;;;14.75;8.18;;;-3.70;99.90;;;;;;4961104;28;20063;-71
2021/12/26 05:10:29;;;;;;;13.40;8.00;;;-3.70;99.90;;;;;;4968137;28;20034;-72
2021/12/26 05:12:59;;;;;;;14.15;8.45;;;-3.80;99.90;;;;;;4962530;28;20045;-72
2021/12/26 05:15:26;;;;;;;15.48;8.15;;;-3.80;99.90;;;;;;4960595;28;20506;-72
2021/12/26 05:17:53;;;;;;;16.02;8.07;;;-3.70;99.90;;;;;;4973576;28;20109;-72
2021/12/26 05:20:20;;;;;;;18.38;8.45;;;-3.70;99.90;;;;;;4964206;28;20287;-71
2021/12/26 05:22:48;;;;;;;14.60;8.38;;;-3.70;99.90;;;;;;4970147;28;20037;-71
2021/12/26 05:25:14;;;;;;;15.05;8.30;;;-3.70;99.90;;;;;;4964317;28;20505;-72
2021/12/26 05:27:41;;;;;;;15.20;8.10;;;-3.80;99.90;;;;;;4961599;28;20019;-72
2021/12/26 05:30:09;;;;;;;16.33;8.55;;;-3.80;99.90;;;;;;4963831;28;20031;-72
2021/12/26 05:32:35;;;;;;;14.90;8.43;;;-3.80;99.90;;;;;;4966372;28;20058;-72
2021/12/26 05:35:01;;;;;;;18.13;9.05;;;-3.80;99.90;;;;;;4964752;28;20138;-72
2021/12/26 05:37:26;;;;;;;17.42;7.82;;;-3.80;99.90;;;;;;4958983;28;20059;-72
2021/12/26 05:39:52;;;;;;;16.13;8.65;;;-3.70;99.90;;;;;;4968455;28;20038;-72
2021/12/26 05:42:17;;;;;;;15.88;8.57;;;-3.70;99.90;;;;;;4961678;28;20089;-72
2021/12/26 05:44:44;;;;;;;14.93;9.00;;;-3.70;99.90;;;;;;4961934;28;20534;-72
2021/12/26 05:47:10;;;;;;;15.95;9.20;;;-3.70;99.90;;;;;;4957846;28;20553;-72
2021/12/26 05:49:35;;;;;;;14.63;8.82;;;-3.70;99.90;;;;;;4960818;28;20019;-72
2021/12/26 05:52:01;;;;;;;19.85;10.35;;;-3.70;99.90;;;;;;4966264;28;20094;-72
2021/12/26 05:54:27;;;;;;;18.48;9.65;;;-3.70;99.90;;;;;;4959075;28;20031;-73
2021/12/26 05:56:52;;;;;;;16.92;9.95;;;-3.70;99.90;;;;;;4967612;28;20037;-72
2021/12/26 05:59:18;;;;;;;16.30;9.93;;;-3.70;99.90;;;;;;4956708;28;20035;-72
2021/12/26 06:01:44;;;;;;;16.58;9.82;;;-3.70;99.90;;;;;;4950188;28;20031;-72
2021/12/26 06:04:09;;;;;;;18.00;10.07;;;-3.70;99.90;;;;;;4956900;28;20081;-73
2021/12/26 06:06:35;;;;;;;19.30;10.00;;;-3.60;99.90;;;;;;4962679;28;20085;-72
2021/12/26 06:09:01;;;;;;;16.02;9.60;;;-3.60;99.90;;;;;;4966667;28;20027;-72
2021/12/26 06:11:26;;;;;;;16.88;9.73;;;-3.50;99.90;;;;;;4963970;28;20071;-72
2021/12/26 06:13:52;;;;;;;21.42;9.80;;;-3.50;99.90;;;;;;4963484;28;20054;-72
2021/12/26 06:16:17;;;;;;;17.88;9.77;;;-3.50;99.90;;;;;;4960135;28;20029;-72
2021/12/26 06:18:43;;;;;;;19.48;10.50;;;-3.50;99.90;;;;;;4962838;28;20412;-71
2021/12/26 06:21:08;;;;;;;17.67;10.73;;;-3.50;99.90;;;;;;4965034;28;20062;-71
2021/12/26 06:23:34;;;;;;;21.40;10.57;;;-3.40;99.90;;;;;;4977185;28;20019;-72
2021/12/26 06:26:00;;;;;;;20.35;10.75;;;-3.40;99.90;;;;;;4961068;28;20061;-73
2021/12/26 06:28:25;;;;;;;18.63;9.82;;;-3.40;99.90;;;;;;4963320;28;20054;-72
2021/12/26 06:30:51;;;;;;;21.13;9.70;;;-3.40;99.90;;;;;;4961096;28;20047;-72
2021/12/26 06:33:16;;;;;;;18.98;9.80;;;-3.50;99.90;;;;;;4964557;28;20030;-72
2021/12/26 06:35:42;;;;;;;19.33;9.82;;;-3.40;99.90;;;;;;4955162;28;20451;-72
2021/12/26 06:38:08;;;;;;;17.33;9.82;;;-3.40;99.90;;;;;;4963919;28;20491;-72
2021/12/26 06:40:33;;;;;;;17.88;10.98;;;-3.50;99.90;;;;;;4966056;28;20023;-72
2021/12/26 06:42:59;;;;;;;20.85;10.45;;;-3.40;99.90;;;;;;4959417;28;20038;-72
2021/12/26 06:45:24;;;;;;;16.50;9.63;;;-3.40;99.90;;;;;;4966223;28;20491;-72
2021/12/26 06:47:52;;;;;;;15.45;9.68;;;-3.40;99.90;;;;;;4961162;28;20034;-73
2021/12/26 06:50:21;;;;;;;16.95;9.82;;;-3.40;99.90;;;;;;4957458;28;20050;-72
2021/12/26 06:52:48;;;;;;;16.77;9.75;;;-3.50;99.90;;;;;;4962467;28;20032;-72
2021/12/26 06:55:14;;;;;;;19.17;9.52;;;-3.50;99.90;;;;;;4956211;28;20031;-72
2021/12/26 06:57:40;;;;;;;16.13;9.75;;;-3.50;99.90;;;;;;4961721;28;20034;-72
2021/12/26 07:00:09;;;;;;;19.30;9.73;;;-3.50;99.90;;;;;;4960955;28;20109;-72
2021/12/26 07:02:35;;;;;;;18.42;10.50;;;-3.50;99.90;;;;;;4956025;28;20505;-72
2021/12/26 07:05:02;;;;;;;17.45;9.82;;;-3.40;99.90;;;;;;4957505;28;20019;-72
2021/12/26 07:07:27;;;;;;;17.25;9.90;;;-3.40;99.90;;;;;;4963130;28;20091;-72
2021/12/26 07:09:53;;;;;;;17.55;10.45;;;-3.30;99.90;;;;;;4965117;28;20502;-72
2021/12/26 07:12:19;;;;;;;19.58;10.50;;;-3.40;99.90;;;;;;4963392;28;20027;-73
2021/12/26 07:14:45;;;;;;;17.48;9.98;;;-3.40;99.90;;;;;;4967086;28;20085;-74
2021/12/26 07:17:11;;;;;;;18.60;10.50;;;-3.40;99.90;;;;;;4964527;28;20683;-73
2021/12/26 07:19:38;;;;;;;16.33;9.77;;;-3.40;99.90;;;;;;4962232;28;20034;-73
2021/12/26 07:22:04;;;;;;;17.55;10.25;;;-3.40;99.90;;;;;;4966810;28;20058;-73
2021/12/26 07:24:30;;;;;;;17.23;10.40;;;-3.40;99.90;;;;;;4967811;28;20035;-73
2021/12/26 07:26:55;;;;;;;18.27;10.43;;;-3.40;99.90;;;;;;4957987;28;20027;-73
2021/12/26 07:29:21;;;;;;;20.13;11.13;;;-3.40;99.90;;;;;;4973814;28;20027;-73
2021/12/26 07:31:47;;;;;;;20.35;11.15;;;-3.40;99.90;;;;;;4976942;28;20037;-72
2021/12/26 07:34:13;;;;;;;20.98;11.80;;;-3.40;99.90;;;;;;4962979;28;20030;-73
2021/12/26 07:36:39;;;;;;;19.63;11.55;;;-3.40;99.90;;;;;;4966672;28;20038;-73
2021/12/26 07:39:05;;;;;;;16.25;10.23;;;-3.30;99.90;;;;;;4960960;28;20042;-72
2021/12/26 07:41:31;;;;;;;19.63;11.35;;;-3.20;99.90;;;;;;4255771;28;10000873;-71
2021/12/26 07:43:56;;;;;;;19.73;10.93;;;-3.10;99.90;;;;;;4918198;28;20561;-72
2021/12/26 07:46:22;;;;;;;19.80;11.43;;;-3.10;99.90;;;;;;4937564;28;20030;-72
2021/12/26 07:48:48;;;;;;;20.45;12.02;;;-3.10;99.90;;;;;;4942420;28;20089;-71
2021/12/26 07:51:14;;;;;;;18.98;11.13;;;-3.10;99.90;;;;;;4936770;28;20714;-72
2021/12/26 07:53:39;;;;;;;20.50;11.50;;;-3.10;99.90;;;;;;4950360;28;20047;-71
2021/12/26 07:56:05;;;;;;;20.77;11.32;;;-3.10;99.90;;;;;;4949105;28;20587;-71
2021/12/26 07:58:30;;;;;;;21.27;11.88;;;-3.10;99.90;;;;;;4948412;28;20039;-71
2021/12/26 08:00:56;;;;;;;20.35;11.70;;;-3.00;99.90;;;;;;4941998;28;20723;-72
2021/12/26 08:03:22;;;;;;;19.20;11.23;;;-3.00;99.90;;;;;;4938966;28;20072;-72
2021/12/26 08:05:48;;;;;;;20.48;11.45;;;-3.00;99.90;;;;;;4940040;28;20063;-72
2021/12/26 08:08:13;;;;;;;19.02;10.95;;;-3.00;99.90;;;;;;4936715;28;20069;-72
2021/12/26 08:10:39;;;;;;;21.30;10.75;;;-2.90;99.90;;;;;;4952452;28;20200;-72
2021/12/26 08:13:05;;;;;;;21.05;11.73;;;-2.90;99.90;;;;;;4935252;28;20071;-71
2021/12/26 08:15:30;;;;;;;19.65;10.85;;;-2.90;99.90;;;;;;4936879;28;20039;-72
2021/12/26 08:17:56;;;;;;;18.55;11.35;;;-2.90;99.90;;;;;;4938077;28;20119;-71
2021/12/26 08:20:22;;;;;;;19.70;12.02;;;-3.00;99.90;;;;;;4951092;28;20127;-72
2021/12/26 08:22:48;;;;;;;19.65;11.48;;;-3.00;99.90;;;;;;4961516;28;21109;-71
2021/12/26 08:25:14;;;;;;;21.17;12.13;;;-2.90;99.90;;;;;;4961551;28;20821;-72
2021/12/26 08:27:40;;;;;;;21.02;11.93;;;-2.90;99.90;;;;;;4962437;28;20019;-72
2021/12/26 08:30:07;;;;;;;22.30;11.90;;;-2.80;99.90;;;;;;4956023;28;20031;-72
2021/12/26 08:32:35;;;;;;;20.65;12.40;;;-2.80;99.90;;;;;;4962404;28;20034;-72
2021/12/26 08:35:04;;;;;;;24.52;12.90;;;-2.70;99.90;;;;;;4961008;28;20093;-72
2021/12/26 08:37:31;;;;;;;21.75;12.90;;;-2.70;99.90;;;;;;4963273;28;20571;-72
2021/12/26 08:39:57;;;;;;;23.88;13.38;;;;;;;;;;4958345;28;20042;-72
2021/12/26 08:42:23;;;;;;;24.90;12.75;;;;;;;;;;4952592;28;20031;-72
2021/12/26 08:44:50;;;;;;;22.70;12.55;;;;;;;;;;4960253;28;20084;-72
2021/12/26 08:47:17;;;;;;;26.77;13.05;;;;;;;;;;4960298;28;20061;-71
2021/12/26 08:49:43;;;;;;;23.80;13.00;;;;;;;;;;4963311;28;20394;-72
2021/12/26 08:52:09;;;;;;;24.35;13.25;;;;;;;;;;4956187;28;20031;-72
2021/12/26 08:54:36;;;;;;;22.30;13.00;;;;;;;;;;4956193;28;20555;-71
2021/12/26 08:57:02;;;;;;;23.15;13.48;;;;;;;;;;4964709;28;20093;-72
2021/12/26 08:59:30;;;;;;;23.58;12.52;;;;;;;;;;4952365;28;20038;-71
2021/12/26 09:02:00;;;;;;;24.63;12.88;;;;;;;;;;4954363;28;20104;-72
2021/12/26 09:04:26;;;;;;;22.17;12.85;;;;;;;;;;4958681;28;20031;-71
2021/12/26 09:06:52;;;;;;;23.27;13.40;;;;;;;;;;4960413;28;20166;-70
2021/12/26 09:09:18;;;;;;;25.83;13.40;;;-2.40;99.90;;;;;;4954014;28;20023;-71
2021/12/26 09:11:43;;;;;;;23.50;13.40;;;-2.40;99.90;;;;;;4958575;28;20383;-72
2021/12/26 09:14:09;;;;;;;22.88;12.85;;;-2.40;99.90;;;;;;4965186;28;20050;-71
2021/12/26 09:16:35;;;;;;;24.30;13.45;;;-2.40;99.90;;;;;;4963590;28;20074;-71
2021/12/26 09:19:05;;;;;;;20.88;12.40;;;-2.40;99.90;;;;;;4962446;28;20275;-72
2021/12/26 09:21:31;;;;;;;22.83;13.27;;;-2.40;99.90;;;;;;4962144;28;20035;-71
2021/12/26 09:23:56;;;;;;;22.00;12.45;;;-2.30;99.90;;;;;;4966699;28;20042;-71
2021/12/26 09:26:23;;;;;;;22.15;12.93;;;-2.30;99.90;;;;;;4965041;28;20110;-70
2021/12/26 09:28:49;;;;;;;22.50;12.75;;;-2.30;99.90;;;;;;4961263;28;20592;-69
2021/12/26 09:31:15;;;;;;;21.73;12.70;;;-2.30;99.90;;;;;;4976126;28;20470;-69
2021/12/26 09:33:41;;;;;;;20.65;12.30;;;-2.30;99.90;;;;;;4964396;28;20133;-70
2021/12/26 09:36:06;;;;;;;19.13;12.38;;;-2.30;99.90;;;;;;4963367;28;20046;-71
2021/12/26 09:38:32;;;;;;;24.30;12.40;;;-2.30;99.90;;;;;;4958388;28;20073;-70
2021/12/26 09:40:59;;;;;;;22.33;12.43;;;-2.30;99.90;;;;;;4957617;28;20045;-70
2021/12/26 09:43:26;;;;;;;21.52;12.27;;;-2.30;99.90;;;;;;4961798;28;20042;-70
2021/12/26 09:45:52;;;;;;;22.33;12.77;;;-2.30;99.90;;;;;;4959388;28;20748;-70
2021/12/26 09:48:18;;;;;;;24.60;13.32;;;-2.30;99.90;;;;;;4958041;28;20081;-70
2021/12/26 09:50:45;;;;;;;23.45;13.60;;;-2.20;99.90;;;;;;4962481;28;20129;-70
2021/12/26 09:53:11;;;;;;;22.77;13.23;;;-2.10;99.90;;;;;;4957013;28;20058;-70
2021/12/26 09:55:36;;;;;;;20.65;12.13;;;-2.00;99.90;;;;;;4955941;28;20031;-70
2021/12/26 09:58:02;;;;;;;22.23;12.45;;;-1.90;99.90;;;;;;4956811;28;20081;-70
2021/12/26 10:00:35;;;;;;;21.88;12.40;;;-1.90;99.90;;;;;;4959929;28;20764;-70
2021/12/26 10:03:33;;;;;;;17.83;9.68;;;-1.80;99.90;;;;;;4957244;28;20735;-70
2021/12/26 10:05:59;;;;;;;24.77;14.05;;;;;;;;;;4959482;28;20042;-70
2021/12/26 10:08:25;;;;;;;20.00;12.05;;;-1.70;99.90;;;;;;4955826;28;20045;-70
2021/12/26 10:11:07;;;;;;;21.90;13.13;;;-1.80;99.90;;;;;;4960643;28;20451;-70
2021/12/26 10:13:45;;;;;;;21.60;12.40;;;-1.80;99.90;;;;;;4955271;28;20030;-70
2021/12/26 10:16:14;;;;;;;22.35;13.27;;;-1.70;99.90;;;;;;4959310;28;20521;-71
2021/12/26 10:18:40;;;;;;;23.08;13.13;;;-1.70;99.90;;;;;;4960544;28;20713;-70
2021/12/26 10:21:27;;;;;;;20.50;12.85;;;-1.60;99.90;;;;;;4958442;28;20103;-70
2021/12/26 10:23:55;;;;;;;22.83;13.05;;;-1.60;99.90;;;;;;4960905;28;20430;-70
2021/12/26 10:26:25;;;;;;;21.55;13.07;;;-1.60;99.90;;;;;;4958279;28;20085;-70
2021/12/26 10:29:26;;;;;;;22.85;12.93;;;-1.60;99.90;;;;;;4957379;28;20090;-70
2021/12/26 10:32:02;;;;;;;23.13;13.02;;;-1.50;99.90;;;;;;4915265;28;20049;-71
2021/12/26 10:34:34;;;;;;;25.80;13.88;;;-1.50;99.90;;;;;;4960516;28;20098;-70
2021/12/26 10:37:02;;;;;;;26.00;14.27;;;-1.50;99.90;;;;;;4953446;28;20041;-70
2021/12/26 10:39:36;;;;;;;26.13;15.07;;;-1.40;99.90;;;;;;4958748;28;20150;-72
2021/12/26 10:42:05;;;;;;;23.52;13.77;;;-1.50;99.90;;;;;;4960449;28;21036;-71
2021/12/26 10:44:41;;;;;;;26.55;14.93;;;-1.40;99.90;;;;;;4955350;28;20034;-70
2021/12/26 10:47:13;;;;;;;25.75;14.90;;;-1.30;99.90;;;;;;4958261;28;20038;-70
2021/12/26 10:50:02;;;;;;;27.45;15.13;;;-1.30;99.90;;;;;;4956942;28;20035;-70
2021/12/26 10:52:35;;;;;;;26.05;14.55;;;-1.20;99.90;;;;;;4952252;28;20034;-71
2021/12/26 10:55:14;;;;;;;27.40;15.00;;;-1.10;99.90;;;;;;4952885;28;20035;-71
2021/12/26 10:57:45;;;;;;;25.98;15.13;;;-1.10;99.90;;;;;;4958077;28;20041;-70
2021/12/26 11:00:24;;;;;;;26.17;15.45;;;-1.10;99.90;;;;;;4958293;28;20027;-70
2021/12/26 11:03:09;;;;;;;26.05;14.68;;;-1.00;99.90;;;;;;4957127;28;20042;-71
2021/12/26 11:05:43;;;;;;;27.67;15.88;;;;;;;;;;4961658;28;20031;-70
2021/12/26 11:08:16;;;;;;;27.10;15.25;;;-1.00;99.90;;;;;;4954238;28;20057;-70
2021/12/26 11:10:51;;;;;;;26.40;14.57;;;-1.00;99.90;;;;;;4957101;28;20035;-69
2021/12/26 11:13:27;;;;;;;25.08;14.57;;;-1.00;99.90;;;;;;4958837;28;20027;-70
2021/12/26 11:16:06;;;;;;;23.05;14.10;;;-0.90;99.90;;;;;;4953243;28;20169;-70
2021/12/26 11:18:33;;;;;;;25.85;15.48;;;-0.90;99.90;;;;;;4960725;28;20081;-70
2021/12/26 11:21:02;;;;;;;28.88;16.25;;;-0.80;99.90;;;;;;4958181;28;20035;-70
2021/12/26 11:23:31;;;;;;;25.83;15.23;;;-0.90;99.90;;;;;;4963135;28;20461;-69
2021/12/26 11:26:06;;;;;;;28.67;15.60;;;-0.80;99.90;;;;;;4960117;28;20136;-70
2021/12/26 11:28:38;;;;;;;28.65;15.90;;;-0.80;99.90;;;;;;4963431;28;20039;-70
2021/12/26 11:31:06;;;;;;;27.83;16.13;;;-0.80;99.90;;;;;;4954881;28;20793;-70
2021/12/26 11:33:33;;;;;;;28.75;15.95;;;-0.80;99.90;;;;;;4960737;28;20702;-70
2021/12/26 11:36:00;;;;;;;31.30;16.88;;;-0.80;99.90;;;;;;4956141;28;20035;-70
2021/12/26 11:38:28;;;;;;;27.92;15.88;;;-0.70;99.90;;;;;;4955757;28;20184;-70
2021/12/26 11:41:00;;;;;;;29.80;16.05;;;-0.70;99.90;;;;;;4963264;28;20050;-70
2021/12/26 11:44:02;;;;;;;29.35;15.90;;;-0.60;99.90;;;;;;4953518;28;20121;-70
2021/12/26 11:46:40;;;;;;;26.52;15.85;;;-0.70;99.90;;;;;;4969043;28;20038;-71
2021/12/26 11:49:42;;;;;;;28.48;16.13;;;-0.70;99.90;;;;;;4956770;28;20039;-70
2021/12/26 11:52:36;;;;;;;28.40;16.23;;;-0.60;99.90;;;;;;4961099;28;20035;-70
2021/12/26 11:55:25;;;;;;;31.52;15.63;;;-0.60;99.90;;;;;;4963007;28;20058;-70
2021/12/26 11:58:02;;;;;;;28.45;16.27;;;-0.60;99.90;;;;;;4951450;28;20531;-70
2021/12/26 12:00:38;;;;;;;31.48;16.67;;;-0.50;99.90;;;;;;4957777;28;20660;-69
2021/12/26 12:03:06;;;;;;;27.63;15.57;;;-0.50;99.90;;;;;;4956891;28;20570;-69
2021/12/26 12:05:41;;;;;;;31.77;16.55;;;-0.50;99.90;;;;;;4958957;28;20490;-70
2021/12/26 12:08:16;;;;;;;29.40;16.95;;;-0.50;99.90;;;;;;4961656;28;20069;-70
2021/12/26 12:10:56;;;;;;;31.27;16.80;;;-0.50;99.90;;;;;;4962991;28;20026;-70
2021/12/26 12:13:39;;;;;;;30.05;16.90;;;-0.50;99.90;;;;;;4960377;28;20074;-70
2021/12/26 12:16:10;;;;;;;30.08;17.38;;;-0.50;99.90;;;;;;4962995;28;20447;-70
2021/12/26 12:18:52;;;;;;;31.83;17.70;;;-0.50;99.90;;;;;;4963336;28;20035;-70
2021/12/26 12:21:29;;;;;;;30.80;16.92;;;-0.50;99.90;;;;;;4958618;28;20220;-70
2021/12/26 12:24:18;;;;;;;33.70;17.92;;;-0.50;99.90;;;;;;4963059;28;20082;-69
2021/12/26 12:26:54;;;;;;;31.20;18.10;;;-0.50;99.90;;;;;;4965065;28;20517;-70
2021/12/26 12:29:29;;;;;;;31.75;17.83;;;-0.40;99.90;;;;;;4962969;28;20030;-69
2021/12/26 12:32:06;;;;;;;30.23;17.48;;;-0.40;99.90;;;;;;4966903;28;20529;-70
2021/12/26 12:34:58;;;;;;;30.45;17.00;;;-0.40;99.90;;;;;;4966763;28;20555;-70
2021/12/26 12:37:28;;;;;;;31.70;17.65;;;-0.30;99.90;;;;;;4961114;28;20081;-70
2021/12/26 12:40:11;;;;;;;32.13;17.70;;;-0.30;99.90;;;;;;4965604;28;20403;-70
2021/12/26 12:42:38;;;;;;;32.30;17.80;;;-0.30;99.90;;;;;;4966135;28;20553;-70
2021/12/26 12:45:04;;;;;;;31.98;18.42;;;-0.30;99.90;;;;;;4961734;28;20066;-70
2021/12/26 12:47:30;;;;;;;34.75;18.98;;;-0.30;99.90;;;;;;4963005;28;20125;-71